createdAt,value
2022-10-18T00:03:51.683Z,15.2
2022-10-18T00:13:53.483Z,15.2
2022-10-18T00:23:55.877Z,15.1
2022-10-18T00:33:58.518Z,15.1
2022-10-18T00:54:02.793Z,15.1
2022-10-18T01:04:04.573Z,15.1
2022-10-18T01:24:08.383Z,15.1
2022-10-18T01:34:10.164Z,15.1
2022-10-18T01:44:12.708Z,15.1
2022-10-18T01:54:15.055Z,15
2022-10-18T02:04:17.124Z,15
2022-10-18T02:14:19.090Z,15
2022-10-18T02:24:21.088Z,14.9
2022-10-18T02:34:23.308Z,14.9
2022-10-18T02:44:25.231Z,14.9
2022-10-18T02:54:27.054Z,14.9
2022-10-18T03:04:29.794Z,14.8
2022-10-18T03:14:31.730Z,14.8
2022-10-18T03:24:33.763Z,14.9
2022-10-18T03:34:35.946Z,14.9
2022-10-18T03:44:38.073Z,14.8
2022-10-18T03:47:32.575Z,14.8
2022-10-18T03:54:50.082Z,14.8
2022-10-18T04:04:51.917Z,14.8
2022-10-18T04:14:55.624Z,14.8
2022-10-18T04:24:56.261Z,14.9
2022-10-18T04:34:58.816Z,14.8
2022-10-18T04:45:00.752Z,14.8
2022-10-18T04:55:03.414Z,14.8
2022-10-18T05:05:07.068Z,14.8
2022-10-18T05:15:08.243Z,14.7
2022-10-18T05:25:10.602Z,14.7
2022-10-18T05:35:13.104Z,14.7
2022-10-18T05:45:15.354Z,14.7
2022-10-18T05:55:17.431Z,14.7
2022-10-18T06:05:19.614Z,14.8
2022-10-18T06:15:21.742Z,14.8
2022-10-18T06:25:24.019Z,14.8
2022-10-18T06:35:26.367Z,14.8
2022-10-18T06:45:28.619Z,14.7
2022-10-18T06:55:31.168Z,14.7
2022-10-18T07:15:35.995Z,14.7
2022-10-18T07:25:38.153Z,14.8
2022-10-18T07:35:40.157Z,14.8
2022-10-18T07:45:42.185Z,14.9
2022-10-18T07:55:44.823Z,15
2022-10-18T08:05:46.613Z,15.2
2022-10-18T08:15:49.164Z,15.2
2022-10-18T08:25:51.108Z,15.2
2022-10-18T08:35:53.061Z,15.1
2022-10-18T08:45:55.204Z,15.1
2022-10-18T08:55:57.843Z,15.1
2022-10-18T09:06:00.339Z,15.2
2022-10-18T09:16:02.214Z,15.4
2022-10-18T09:26:04.418Z,15.5
2022-10-18T09:36:07.034Z,15.6
2022-10-18T09:46:09.248Z,16
2022-10-18T09:56:11.881Z,15.9
2022-10-18T10:06:14.154Z,16
2022-10-18T10:16:16.180Z,16.1
2022-10-18T10:26:18.191Z,16.2
2022-10-18T10:36:20.712Z,16.4
2022-10-18T10:46:22.998Z,16.7
2022-10-18T10:56:24.891Z,17
2022-10-18T11:06:26.918Z,17.4
2022-10-18T11:16:28.979Z,17.8
2022-10-18T11:26:30.904Z,17.9
2022-10-18T11:36:33.966Z,18
2022-10-18T11:46:35.095Z,18.6
2022-10-18T11:56:37.021Z,19.4
2022-10-18T12:06:38.701Z,18.6
2022-10-18T12:16:50.820Z,19.1
2022-10-18T12:26:43.685Z,19.7
2022-10-18T12:36:45.541Z,19.8
2022-10-18T12:56:49.442Z,19.5
2022-10-18T13:06:51.607Z,20.2
2022-10-18T13:16:54.326Z,19.9
2022-10-18T13:36:58.066Z,20.1
2022-10-18T13:47:00.161Z,19.8
2022-10-18T13:57:02.373Z,19.9
2022-10-18T14:37:10.685Z,19.9
2022-10-18T14:47:12.371Z,20
2022-10-18T14:57:14.825Z,19.6
2022-10-18T15:17:19.442Z,19.4
2022-10-18T15:37:23.715Z,18.5
2022-10-18T15:47:25.658Z,17.9
2022-10-18T15:57:29.074Z,17.4
2022-10-18T16:17:32.473Z,16.7
2022-10-18T16:37:36.676Z,16.1
2022-10-18T16:57:41.404Z,15.6
2022-10-18T17:17:45.237Z,15
2022-10-18T17:37:48.992Z,14.2
2022-10-18T17:57:53.556Z,13.6
2022-10-18T18:07:56.880Z,13.4
2022-10-18T18:17:58.472Z,13.2
2022-10-18T18:48:03.962Z,12.5
2022-10-18T18:58:06.087Z,12.4
2022-10-18T19:08:07.927Z,12.3
2022-10-18T19:18:10.184Z,12.1
2022-10-18T19:28:12.628Z,11.8
2022-10-18T19:38:14.324Z,11.6
2022-10-18T19:48:16.075Z,11.5
2022-10-18T20:08:19.812Z,11
2022-10-18T20:18:21.837Z,11
2022-10-18T20:28:24.233Z,10.8
2022-10-18T20:38:26.483Z,10.6
2022-10-18T20:48:28.310Z,10.5
2022-10-18T20:58:30.278Z,10.4
2022-10-18T21:08:32.688Z,10.2
2022-10-18T21:18:35.215Z,10
2022-10-18T21:38:40.269Z,9.8
2022-10-18T21:48:42.315Z,9.7
2022-10-18T21:58:44.956Z,9.7
2022-10-18T22:08:46.709Z,9.6
2022-10-18T22:28:51.923Z,9.3
2022-10-18T22:38:54.348Z,9
2022-10-18T22:48:56.596Z,8.8
2022-10-18T23:09:00.007Z,8.6
2022-10-18T23:19:02.449Z,8.4
2022-10-18T23:29:04.907Z,8.3
2022-10-18T23:39:07.520Z,8.1
2022-10-18T23:49:09.272Z,8
2022-10-18T23:59:11.052Z,7.9
